sensor_id;sensor_type;location;lat;lon;timestamp;pressure;altitude;pressure_sealevel;temperature;humidity
40940;BME280;26666;50.156;7.700;2023-05-28T00:03:34;100830.34;;;14.54;74.16
40940;BME280;26666;50.156;7.700;2023-05-28T00:08:38;100831.03;;;14.56;74.62
40940;BME280;26666;50.156;7.700;2023-05-28T00:13:40;100828.25;;;14.48;73.86
40940;BME280;26666;50.156;7.700;2023-05-28T00:18:41;100822.97;;;14.38;74.38
40940;BME280;26666;50.156;7.700;2023-05-28T00:23:44;100829.13;;;14.38;74.54
40940;BME280;26666;50.156;7.700;2023-05-28T00:28:46;100822.56;;;14.23;74.76
40940;BME280;26666;50.156;7.700;2023-05-28T00:33:48;100826.19;;;14.32;75.49
40940;BME280;26666;50.156;7.700;2023-05-28T00:38:51;100827.31;;;14.29;75.00
40940;BME280;26666;50.156;7.700;2023-05-28T00:43:52;100821.59;;;14.14;75.86
40940;BME280;26666;50.156;7.700;2023-05-28T00:48:55;100828.84;;;14.22;75.13
40940;BME280;26666;50.156;7.700;2023-05-28T00:53:58;100824.28;;;14.05;75.54
40940;BME280;26666;50.156;7.700;2023-05-28T00:59:00;100819.38;;;14.10;75.05
40940;BME280;26666;50.156;7.700;2023-05-28T01:04:02;100819.25;;;14.11;74.41
40940;BME280;26666;50.156;7.700;2023-05-28T01:09:06;100815.34;;;14.06;74.39
40940;BME280;26666;50.156;7.700;2023-05-28T01:14:09;100816.59;;;14.02;74.49
40940;BME280;26666;50.156;7.700;2023-05-28T01:19:11;100821.63;;;13.95;74.91
40940;BME280;26666;50.156;7.700;2023-05-28T01:24:19;100820.25;;;13.91;75.71
40940;BME280;26666;50.156;7.700;2023-05-28T01:29:20;100807.81;;;14.01;74.36
40940;BME280;26666;50.156;7.700;2023-05-28T01:34:22;100812.72;;;13.86;74.22
40940;BME280;26666;50.156;7.700;2023-05-28T01:39:27;100814.25;;;13.79;74.85
40940;BME280;26666;50.156;7.700;2023-05-28T01:44:32;100815.50;;;13.85;75.29
40940;BME280;26666;50.156;7.700;2023-05-28T01:49:36;100809.22;;;13.76;76.17
40940;BME280;26666;50.156;7.700;2023-05-28T01:54:39;100809.38;;;13.65;76.02
40940;BME280;26666;50.156;7.700;2023-05-28T01:59:41;100810.19;;;13.55;76.52
40940;BME280;26666;50.156;7.700;2023-05-28T02:04:43;100807.97;;;13.60;76.32
40940;BME280;26666;50.156;7.700;2023-05-28T02:09:46;100802.94;;;13.48;76.38
40940;BME280;26666;50.156;7.700;2023-05-28T02:14:48;100807.28;;;13.49;76.92
40940;BME280;26666;50.156;7.700;2023-05-28T02:19:49;100797.50;;;13.49;76.64
40940;BME280;26666;50.156;7.700;2023-05-28T02:24:52;100801.28;;;13.56;75.96
40940;BME280;26666;50.156;7.700;2023-05-28T02:29:54;100795.53;;;13.51;75.04
40940;BME280;26666;50.156;7.700;2023-05-28T02:34:56;100786.13;;;13.28;76.25
40940;BME280;26666;50.156;7.700;2023-05-28T02:39:59;100788.13;;;13.35;75.88
40940;BME280;26666;50.156;7.700;2023-05-28T02:45:01;100782.53;;;13.38;75.25
40940;BME280;26666;50.156;7.700;2023-05-28T02:50:04;100779.97;;;13.17;75.86
40940;BME280;26666;50.156;7.700;2023-05-28T02:55:07;100790.03;;;13.24;75.48
40940;BME280;26666;50.156;7.700;2023-05-28T03:00:10;100789.94;;;13.35;74.97
40940;BME280;26666;50.156;7.700;2023-05-28T03:05:12;100794.50;;;13.13;75.26
40940;BME280;26666;50.156;7.700;2023-05-28T03:10:23;100801.31;;;13.06;74.97
40940;BME280;26666;50.156;7.700;2023-05-28T03:27:49;100785.53;;;13.05;75.19
40940;BME280;26666;50.156;7.700;2023-05-28T03:32:51;100790.28;;;13.01;75.35
40940;BME280;26666;50.156;7.700;2023-05-28T03:37:53;100788.59;;;13.00;75.47
40940;BME280;26666;50.156;7.700;2023-05-28T03:43:08;100785.78;;;13.01;75.16
40940;BME280;26666;50.156;7.700;2023-05-28T03:48:47;100787.22;;;13.06;75.54
40940;BME280;26666;50.156;7.700;2023-05-28T03:53:51;100795.47;;;13.12;76.10
40940;BME280;26666;50.156;7.700;2023-05-28T03:58:54;100797.28;;;13.12;76.36
40940;BME280;26666;50.156;7.700;2023-05-28T04:10:17;100791.41;;;13.08;77.46
40940;BME280;26666;50.156;7.700;2023-05-28T04:15:28;100794.31;;;12.95;77.75
40940;BME280;26666;50.156;7.700;2023-05-28T04:37:39;100810.38;;;13.03;78.32
40940;BME280;26666;50.156;7.700;2023-05-28T04:42:41;100811.94;;;13.06;79.08
40940;BME280;26666;50.156;7.700;2023-05-28T04:48:02;100808.03;;;13.10;79.40
40940;BME280;26666;50.156;7.700;2023-05-28T04:53:13;100814.88;;;13.13;79.16
40940;BME280;26666;50.156;7.700;2023-05-28T04:58:42;100812.84;;;13.36;79.04
40940;BME280;26666;50.156;7.700;2023-05-28T05:10:16;100792.19;;;14.35;75.79
40940;BME280;26666;50.156;7.700;2023-05-28T05:15:38;100804.97;;;14.97;73.07
40940;BME280;26666;50.156;7.700;2023-05-28T05:20:46;100801.81;;;15.47;71.51
40940;BME280;26666;50.156;7.700;2023-05-28T05:26:14;100801.47;;;15.78;70.78
40940;BME280;26666;50.156;7.700;2023-05-28T05:31:22;100799.88;;;15.93;69.46
40940;BME280;26666;50.156;7.700;2023-05-28T05:36:27;100801.97;;;16.60;69.58
40940;BME280;26666;50.156;7.700;2023-05-28T05:41:42;100810.34;;;17.16;68.01
40940;BME280;26666;50.156;7.700;2023-05-28T05:46:44;100804.56;;;17.37;66.32
40940;BME280;26666;50.156;7.700;2023-05-28T05:57:38;100797.91;;;18.15;65.22
40940;BME280;26666;50.156;7.700;2023-05-28T06:03:06;100800.41;;;18.72;64.29
40940;BME280;26666;50.156;7.700;2023-05-28T06:08:36;100807.03;;;18.93;64.44
40940;BME280;26666;50.156;7.700;2023-05-28T06:13:57;100801.72;;;19.16;63.73
40940;BME280;26666;50.156;7.700;2023-05-28T06:19:14;100798.66;;;19.27;64.20
40940;BME280;26666;50.156;7.700;2023-05-28T06:35:38;100782.56;;;19.97;63.99
40940;BME280;26666;50.156;7.700;2023-05-28T06:40:39;100789.13;;;20.09;63.73
40940;BME280;26666;50.156;7.700;2023-05-28T06:45:41;100789.97;;;20.09;63.54
40940;BME280;26666;50.156;7.700;2023-05-28T06:50:44;100779.72;;;20.58;61.88
40940;BME280;26666;50.156;7.700;2023-05-28T06:55:46;100783.31;;;20.80;60.95
40940;BME280;26666;50.156;7.700;2023-05-28T07:00:48;100794.63;;;20.75;61.46
40940;BME280;26666;50.156;7.700;2023-05-28T07:05:51;100791.09;;;20.45;61.18
40940;BME280;26666;50.156;7.700;2023-05-28T07:10:53;100786.09;;;20.72;61.36
40940;BME280;26666;50.156;7.700;2023-05-28T07:15:55;100779.53;;;21.11;60.49
40940;BME280;26666;50.156;7.700;2023-05-28T07:20:59;100771.88;;;21.29;60.54
40940;BME280;26666;50.156;7.700;2023-05-28T07:26:02;100767.91;;;21.25;60.87
40940;BME280;26666;50.156;7.700;2023-05-28T07:31:04;100784.19;;;21.81;58.51
40940;BME280;26666;50.156;7.700;2023-05-28T07:36:08;100773.66;;;21.22;60.70
40940;BME280;26666;50.156;7.700;2023-05-28T07:41:10;100779.31;;;21.70;59.60
40940;BME280;26666;50.156;7.700;2023-05-28T07:46:11;100777.03;;;21.09;61.07
40940;BME280;26666;50.156;7.700;2023-05-28T07:51:16;100766.97;;;21.33;59.43
40940;BME280;26666;50.156;7.700;2023-05-28T08:01:21;100763.69;;;21.16;60.95
40940;BME280;26666;50.156;7.700;2023-05-28T08:06:24;100762.56;;;20.88;62.85
40940;BME280;26666;50.156;7.700;2023-05-28T08:11:26;100757.69;;;21.14;60.38
40940;BME280;26666;50.156;7.700;2023-05-28T08:16:28;100765.06;;;20.90;60.71
40940;BME280;26666;50.156;7.700;2023-05-28T08:21:31;100759.88;;;20.88;62.55
40940;BME280;26666;50.156;7.700;2023-05-28T08:26:33;100749.91;;;20.82;63.85
40940;BME280;26666;50.156;7.700;2023-05-28T08:31:34;100755.81;;;20.33;66.86
40940;BME280;26666;50.156;7.700;2023-05-28T08:36:38;100738.72;;;20.19;65.65
40940;BME280;26666;50.156;7.700;2023-05-28T08:41:39;100736.31;;;20.24;65.36
40940;BME280;26666;50.156;7.700;2023-05-28T08:46:41;100727.09;;;20.12;65.47
40940;BME280;26666;50.156;7.700;2023-05-28T08:51:48;100728.63;;;19.54;69.25
40940;BME280;26666;50.156;7.700;2023-05-28T08:56:50;100722.06;;;19.56;68.69
40940;BME280;26666;50.156;7.700;2023-05-28T09:01:52;100714.47;;;19.98;64.90
40940;BME280;26666;50.156;7.700;2023-05-28T09:06:55;100706.22;;;19.84;63.91
40940;BME280;26666;50.156;7.700;2023-05-28T09:11:58;100708.38;;;20.04;65.81
40940;BME280;26666;50.156;7.700;2023-05-28T09:17:04;100708.94;;;20.14;64.32
40940;BME280;26666;50.156;7.700;2023-05-28T09:22:07;100706.16;;;19.55;67.56
40940;BME280;26666;50.156;7.700;2023-05-28T09:27:09;100705.50;;;19.53;67.90
40940;BME280;26666;50.156;7.700;2023-05-28T09:32:11;100703.34;;;19.71;68.03
40940;BME280;26666;50.156;7.700;2023-05-28T09:37:20;100696.47;;;19.54;69.60
40940;BME280;26666;50.156;7.700;2023-05-28T09:42:22;100692.00;;;19.84;68.08
40940;BME280;26666;50.156;7.700;2023-05-28T09:47:23;100683.78;;;19.85;68.45
40940;BME280;26666;50.156;7.700;2023-05-28T09:52:27;100677.41;;;19.72;67.40
40940;BME280;26666;50.156;7.700;2023-05-28T09:57:30;100675.03;;;19.54;66.48
40940;BME280;26666;50.156;7.700;2023-05-28T10:02:41;100671.72;;;19.52;66.33
40940;BME280;26666;50.156;7.700;2023-05-28T10:07:48;100667.50;;;19.72;65.79
40940;BME280;26666;50.156;7.700;2023-05-28T10:12:52;100671.50;;;19.91;58.21
40940;BME280;26666;50.156;7.700;2023-05-28T10:17:55;100666.38;;;20.11;60.16
40940;BME280;26666;50.156;7.700;2023-05-28T10:22:58;100663.75;;;19.58;61.63
40940;BME280;26666;50.156;7.700;2023-05-28T10:28:01;100656.50;;;19.82;58.24
40940;BME280;26666;50.156;7.700;2023-05-28T10:33:07;100670.09;;;19.80;59.21
40940;BME280;26666;50.156;7.700;2023-05-28T10:38:10;100654.66;;;19.97;57.13
40940;BME280;26666;50.156;7.700;2023-05-28T10:43:42;100663.13;;;19.71;55.13
40940;BME280;26666;50.156;7.700;2023-05-28T10:49:06;100661.19;;;20.24;53.16
40940;BME280;26666;50.156;7.700;2023-05-28T11:00:09;100653.44;;;20.00;55.19
40940;BME280;26666;50.156;7.700;2023-05-28T11:05:11;100644.38;;;20.01;54.77
40940;BME280;26666;50.156;7.700;2023-05-28T11:10:15;100635.00;;;19.67;56.04
40940;BME280;26666;50.156;7.700;2023-05-28T11:15:20;100634.81;;;19.68;57.39
40940;BME280;26666;50.156;7.700;2023-05-28T11:20:24;100632.69;;;19.49;56.52
40940;BME280;26666;50.156;7.700;2023-05-28T11:25:26;100638.00;;;19.72;56.76
40940;BME280;26666;50.156;7.700;2023-05-28T11:30:29;100626.09;;;19.89;54.39
40940;BME280;26666;50.156;7.700;2023-05-28T11:35:31;100614.88;;;19.56;57.63
40940;BME280;26666;50.156;7.700;2023-05-28T11:40:33;100608.75;;;19.33;59.25
40940;BME280;26666;50.156;7.700;2023-05-28T11:45:39;100615.47;;;19.28;58.06
40940;BME280;26666;50.156;7.700;2023-05-28T11:50:41;100612.88;;;19.73;55.53
40940;BME280;26666;50.156;7.700;2023-05-28T11:55:43;100602.19;;;19.50;58.95
40940;BME280;26666;50.156;7.700;2023-05-28T12:00:46;100601.63;;;19.25;57.61
40940;BME280;26666;50.156;7.700;2023-05-28T12:05:56;100598.50;;;19.36;57.96
40940;BME280;26666;50.156;7.700;2023-05-28T12:11:01;100590.25;;;19.38;59.52
40940;BME280;26666;50.156;7.700;2023-05-28T12:16:09;100601.44;;;19.41;58.77
40940;BME280;26666;50.156;7.700;2023-05-28T12:21:12;100600.25;;;19.44;58.08
40940;BME280;26666;50.156;7.700;2023-05-28T12:26:14;100593.66;;;19.31;56.20
40940;BME280;26666;50.156;7.700;2023-05-28T12:31:26;100594.69;;;19.30;57.00
40940;BME280;26666;50.156;7.700;2023-05-28T12:36:28;100592.06;;;19.22;57.25
40940;BME280;26666;50.156;7.700;2023-05-28T12:41:30;100587.84;;;19.28;53.61
40940;BME280;26666;50.156;7.700;2023-05-28T12:46:33;100586.72;;;19.22;54.87
40940;BME280;26666;50.156;7.700;2023-05-28T12:51:35;100570.63;;;19.07;56.06
40940;BME280;26666;50.156;7.700;2023-05-28T12:56:36;100573.41;;;19.14;55.93
40940;BME280;26666;50.156;7.700;2023-05-28T13:01:39;100571.38;;;19.01;57.43
40940;BME280;26666;50.156;7.700;2023-05-28T13:06:41;100559.66;;;19.32;54.92
40940;BME280;26666;50.156;7.700;2023-05-28T13:11:43;100563.63;;;19.21;54.41
40940;BME280;26666;50.156;7.700;2023-05-28T13:16:47;100570.38;;;19.32;51.63
40940;BME280;26666;50.156;7.700;2023-05-28T13:21:49;100566.22;;;19.15;54.44
40940;BME280;26666;50.156;7.700;2023-05-28T13:26:51;100566.03;;;19.16;53.91
40940;BME280;26666;50.156;7.700;2023-05-28T13:31:54;100571.06;;;19.34;52.25
40940;BME280;26666;50.156;7.700;2023-05-28T13:36:55;100572.97;;;19.25;52.74
40940;BME280;26666;50.156;7.700;2023-05-28T13:41:57;100567.13;;;19.22;53.41
40940;BME280;26666;50.156;7.700;2023-05-28T13:47:03;100568.81;;;19.23;52.41
40940;BME280;26666;50.156;7.700;2023-05-28T13:52:06;100559.31;;;19.35;52.84
40940;BME280;26666;50.156;7.700;2023-05-28T13:57:09;100558.38;;;19.13;53.48
40940;BME280;26666;50.156;7.700;2023-05-28T14:02:12;100557.06;;;19.24;52.57
40940;BME280;26666;50.156;7.700;2023-05-28T14:07:14;100541.66;;;19.11;52.78
40940;BME280;26666;50.156;7.700;2023-05-28T14:12:15;100553.66;;;19.15;51.20
40940;BME280;26666;50.156;7.700;2023-05-28T14:17:24;100535.09;;;19.14;49.94
40940;BME280;26666;50.156;7.700;2023-05-28T14:22:26;100547.84;;;19.11;51.60
40940;BME280;26666;50.156;7.700;2023-05-28T14:27:28;100535.25;;;19.12;50.10
40940;BME280;26666;50.156;7.700;2023-05-28T14:32:31;100528.88;;;18.98;52.97
40940;BME280;26666;50.156;7.700;2023-05-28T14:37:33;100530.66;;;19.06;51.94
40940;BME280;26666;50.156;7.700;2023-05-28T14:42:34;100532.06;;;19.17;46.26
40940;BME280;26666;50.156;7.700;2023-05-28T14:47:38;100533.03;;;19.01;48.18
40940;BME280;26666;50.156;7.700;2023-05-28T14:52:40;100528.88;;;18.98;52.24
40940;BME280;26666;50.156;7.700;2023-05-28T14:57:42;100518.56;;;18.95;51.08
40940;BME280;26666;50.156;7.700;2023-05-28T15:02:45;100509.41;;;18.89;51.58
40940;BME280;26666;50.156;7.700;2023-05-28T15:07:47;100505.81;;;18.97;50.31
40940;BME280;26666;50.156;7.700;2023-05-28T15:12:49;100500.63;;;18.96;50.06
40940;BME280;26666;50.156;7.700;2023-05-28T15:17:52;100514.19;;;18.94;52.12
40940;BME280;26666;50.156;7.700;2023-05-28T15:22:53;100496.88;;;19.05;51.94
40940;BME280;26666;50.156;7.700;2023-05-28T15:27:55;100496.34;;;18.86;53.32
40940;BME280;26666;50.156;7.700;2023-05-28T15:32:59;100490.34;;;18.84;55.39
40940;BME280;26666;50.156;7.700;2023-05-28T15:38:03;100488.16;;;18.88;57.35
40940;BME280;26666;50.156;7.700;2023-05-28T15:43:05;100490.22;;;18.78;56.69
40940;BME280;26666;50.156;7.700;2023-05-28T15:48:09;100488.31;;;18.86;55.93
40940;BME280;26666;50.156;7.700;2023-05-28T15:53:10;100477.19;;;18.75;58.38
40940;BME280;26666;50.156;7.700;2023-05-28T15:58:12;100475.81;;;18.79;56.39
40940;BME280;26666;50.156;7.700;2023-05-28T16:03:16;100475.50;;;18.82;56.90
40940;BME280;26666;50.156;7.700;2023-05-28T16:08:20;100478.03;;;18.75;57.58
40940;BME280;26666;50.156;7.700;2023-05-28T16:13:24;100468.63;;;18.79;59.91
40940;BME280;26666;50.156;7.700;2023-05-28T16:18:28;100472.44;;;18.85;58.74
40940;BME280;26666;50.156;7.700;2023-05-28T16:23:30;100475.00;;;18.78;57.97
40940;BME280;26666;50.156;7.700;2023-05-28T16:28:32;100462.63;;;18.77;58.85
40940;BME280;26666;50.156;7.700;2023-05-28T16:33:35;100468.13;;;18.76;58.99
40940;BME280;26666;50.156;7.700;2023-05-28T16:38:37;100464.16;;;18.80;57.13
40940;BME280;26666;50.156;7.700;2023-05-28T16:43:40;100460.44;;;18.81;58.44
40940;BME280;26666;50.156;7.700;2023-05-28T16:48:43;100464.56;;;18.68;61.63
40940;BME280;26666;50.156;7.700;2023-05-28T16:53:45;100465.56;;;18.67;59.72
40940;BME280;26666;50.156;7.700;2023-05-28T16:58:49;100455.03;;;18.66;59.08
40940;BME280;26666;50.156;7.700;2023-05-28T17:03:52;100449.66;;;18.66;62.78
40940;BME280;26666;50.156;7.700;2023-05-28T17:08:54;100456.03;;;18.65;63.80
40940;BME280;26666;50.156;7.700;2023-05-28T17:13:56;100452.59;;;18.56;68.98
40940;BME280;26666;50.156;7.700;2023-05-28T17:18:59;100451.31;;;18.52;64.33
40940;BME280;26666;50.156;7.700;2023-05-28T17:24:01;100455.00;;;18.51;62.73
40940;BME280;26666;50.156;7.700;2023-05-28T17:29:04;100455.34;;;18.48;65.57
40940;BME280;26666;50.156;7.700;2023-05-28T17:34:07;100463.75;;;18.45;63.51
40940;BME280;26666;50.156;7.700;2023-05-28T17:39:09;100459.41;;;18.44;64.79
40940;BME280;26666;50.156;7.700;2023-05-28T17:44:11;100459.13;;;18.39;64.61
40940;BME280;26666;50.156;7.700;2023-05-28T17:49:14;100463.03;;;18.51;60.27
40940;BME280;26666;50.156;7.700;2023-05-28T17:54:16;100465.41;;;18.46;61.84
40940;BME280;26666;50.156;7.700;2023-05-28T17:59:19;100470.47;;;18.41;62.16
40940;BME280;26666;50.156;7.700;2023-05-28T18:04:22;100471.19;;;18.35;63.39
40940;BME280;26666;50.156;7.700;2023-05-28T18:09:24;100489.25;;;18.32;65.08
40940;BME280;26666;50.156;7.700;2023-05-28T18:14:25;100476.25;;;18.29;67.11
40940;BME280;26666;50.156;7.700;2023-05-28T18:19:29;100485.81;;;18.24;66.43
40940;BME280;26666;50.156;7.700;2023-05-28T18:24:30;100476.75;;;18.25;64.71
40940;BME280;26666;50.156;7.700;2023-05-28T18:29:32;100484.13;;;18.23;67.46
40940;BME280;26666;50.156;7.700;2023-05-28T18:34:35;100486.81;;;18.23;69.09
40940;BME280;26666;50.156;7.700;2023-05-28T18:39:37;100496.13;;;18.27;71.72
40940;BME280;26666;50.156;7.700;2023-05-28T18:44:39;100504.81;;;18.29;73.29
40940;BME280;26666;50.156;7.700;2023-05-28T18:49:42;100502.81;;;18.31;74.05
40940;BME280;26666;50.156;7.700;2023-05-28T18:54:43;100511.19;;;18.28;75.02
40940;BME280;26666;50.156;7.700;2023-05-28T18:59:45;100516.38;;;18.29;74.21
40940;BME280;26666;50.156;7.700;2023-05-28T19:04:48;100522.06;;;18.26;73.54
40940;BME280;26666;50.156;7.700;2023-05-28T19:09:50;100522.44;;;18.23;72.35
40940;BME280;26666;50.156;7.700;2023-05-28T19:14:52;100522.94;;;18.19;72.72
40940;BME280;26666;50.156;7.700;2023-05-28T19:19:55;100532.97;;;18.17;72.17
40940;BME280;26666;50.156;7.700;2023-05-28T19:24:57;100547.72;;;18.12;71.85
40940;BME280;26666;50.156;7.700;2023-05-28T19:29:58;100552.28;;;18.04;71.97
40940;BME280;26666;50.156;7.700;2023-05-28T19:35:02;100565.34;;;17.99;72.13
40940;BME280;26666;50.156;7.700;2023-05-28T19:40:04;100581.44;;;17.90;71.36
40940;BME280;26666;50.156;7.700;2023-05-28T19:45:07;100590.81;;;17.86;71.75
40940;BME280;26666;50.156;7.700;2023-05-28T19:50:10;100592.94;;;17.83;72.41
40940;BME280;26666;50.156;7.700;2023-05-28T19:55:12;100595.47;;;17.76;72.08
40940;BME280;26666;50.156;7.700;2023-05-28T20:00:14;100598.16;;;17.68;72.36
40940;BME280;26666;50.156;7.700;2023-05-28T20:05:17;100606.88;;;17.62;71.99
40940;BME280;26666;50.156;7.700;2023-05-28T20:10:19;100609.22;;;17.57;72.73
40940;BME280;26666;50.156;7.700;2023-05-28T20:15:21;100615.06;;;17.52;72.47
40940;BME280;26666;50.156;7.700;2023-05-28T20:20:24;100622.94;;;17.45;72.91
40940;BME280;26666;50.156;7.700;2023-05-28T20:25:26;100623.94;;;17.44;72.90
40940;BME280;26666;50.156;7.700;2023-05-28T20:30:27;100637.63;;;17.41;73.60
40940;BME280;26666;50.156;7.700;2023-05-28T20:35:31;100633.63;;;17.29;72.77
40940;BME280;26666;50.156;7.700;2023-05-28T20:40:32;100644.16;;;17.22;73.04
40940;BME280;26666;50.156;7.700;2023-05-28T20:45:34;100639.47;;;17.16;73.79
40940;BME280;26666;50.156;7.700;2023-05-28T20:50:37;100643.31;;;17.13;74.00
40940;BME280;26666;50.156;7.700;2023-05-28T20:55:39;100646.00;;;17.05;74.53
40940;BME280;26666;50.156;7.700;2023-05-28T21:00:41;100657.19;;;17.09;74.76
40940;BME280;26666;50.156;7.700;2023-05-28T21:05:44;100657.34;;;16.99;74.71
40940;BME280;26666;50.156;7.700;2023-05-28T21:10:45;100659.34;;;16.97;74.31
40940;BME280;26666;50.156;7.700;2023-05-28T21:15:47;100669.00;;;16.90;74.17
40940;BME280;26666;50.156;7.700;2023-05-28T21:20:50;100678.50;;;16.84;74.65
40940;BME280;26666;50.156;7.700;2023-05-28T21:25:52;100677.28;;;16.79;74.60
40940;BME280;26666;50.156;7.700;2023-05-28T21:30:54;100671.94;;;16.70;74.91
40940;BME280;26666;50.156;7.700;2023-05-28T21:35:57;100684.13;;;16.73;74.98
40940;BME280;26666;50.156;7.700;2023-05-28T21:40:59;100677.59;;;16.67;74.09
40940;BME280;26666;50.156;7.700;2023-05-28T21:46:01;100678.91;;;16.63;74.79
40940;BME280;26666;50.156;7.700;2023-05-28T21:51:04;100683.56;;;16.53;74.43
40940;BME280;26666;50.156;7.700;2023-05-28T21:56:06;100696.88;;;16.45;75.19
40940;BME280;26666;50.156;7.700;2023-05-28T22:01:07;100696.72;;;16.46;75.45
40940;BME280;26666;50.156;7.700;2023-05-28T22:06:10;100700.19;;;16.39;75.56
40940;BME280;26666;50.156;7.700;2023-05-28T22:11:15;100705.53;;;16.39;76.25
40940;BME280;26666;50.156;7.700;2023-05-28T22:16:17;100711.69;;;16.39;75.12
40940;BME280;26666;50.156;7.700;2023-05-28T22:21:20;100703.00;;;16.29;75.47
40940;BME280;26666;50.156;7.700;2023-05-28T22:26:22;100705.13;;;16.25;75.57
40940;BME280;26666;50.156;7.700;2023-05-28T22:31:25;100715.59;;;16.19;75.39
40940;BME280;26666;50.156;7.700;2023-05-28T22:36:28;100710.25;;;16.19;75.58
40940;BME280;26666;50.156;7.700;2023-05-28T22:41:30;100706.56;;;16.11;75.78
40940;BME280;26666;50.156;7.700;2023-05-28T22:46:33;100708.22;;;16.12;75.33
40940;BME280;26666;50.156;7.700;2023-05-28T22:51:36;100709.34;;;16.02;76.43
40940;BME280;26666;50.156;7.700;2023-05-28T22:56:38;100710.19;;;16.02;76.24
40940;BME280;26666;50.156;7.700;2023-05-28T23:01:40;100722.47;;;15.95;75.82
40940;BME280;26666;50.156;7.700;2023-05-28T23:06:43;100724.13;;;15.96;75.54
40940;BME280;26666;50.156;7.700;2023-05-28T23:11:45;100728.25;;;15.90;76.32
40940;BME280;26666;50.156;7.700;2023-05-28T23:16:47;100732.25;;;15.86;76.37
40940;BME280;26666;50.156;7.700;2023-05-28T23:21:50;100736.91;;;15.84;76.67
40940;BME280;26666;50.156;7.700;2023-05-28T23:26:52;100726.53;;;15.81;77.30
40940;BME280;26666;50.156;7.700;2023-05-28T23:31:56;100722.81;;;15.74;77.72
40940;BME280;26666;50.156;7.700;2023-05-28T23:36:59;100732.41;;;15.67;77.84
40940;BME280;26666;50.156;7.700;2023-05-28T23:42:01;100729.06;;;15.65;77.12
40940;BME280;26666;50.156;7.700;2023-05-28T23:47:03;100722.72;;;15.66;77.38
40940;BME280;26666;50.156;7.700;2023-05-28T23:52:06;100730.88;;;15.64;77.39
40940;BME280;26666;50.156;7.700;2023-05-28T23:57:08;100739.03;;;15.63;77.17
